createdAt,value
2018-04-06T00:00:48.122Z,21.80
2018-04-06T00:01:48.118Z,21.83
2018-04-06T00:02:48.121Z,21.84
2018-04-06T00:03:48.105Z,21.77
2018-04-06T00:04:48.095Z,21.80
2018-04-06T00:05:48.093Z,21.88
2018-04-06T00:06:48.083Z,21.81
2018-04-06T00:07:48.080Z,21.78
2018-04-06T00:08:48.068Z,21.85
2018-04-06T00:09:48.067Z,21.89
2018-04-06T00:10:48.060Z,21.85
2018-04-06T00:11:48.050Z,21.78
2018-04-06T00:12:48.045Z,21.83
2018-04-06T00:13:48.039Z,21.88
2018-04-06T00:14:48.033Z,21.89
2018-04-06T00:15:48.026Z,21.89
2018-04-06T00:16:48.067Z,21.85
2018-04-06T00:17:48.018Z,21.89
2018-04-06T00:18:48.006Z,21.80
2018-04-06T00:19:48.001Z,21.85
2018-04-06T00:20:48.018Z,21.83
2018-04-06T00:21:47.997Z,21.88
2018-04-06T00:22:47.994Z,21.81
2018-04-06T00:23:47.975Z,21.80
2018-04-06T00:24:47.966Z,21.83
2018-04-06T00:25:47.962Z,21.83
2018-04-06T00:26:47.955Z,21.83
2018-04-06T00:27:47.958Z,21.88
2018-04-06T00:28:47.945Z,21.83
2018-04-06T00:29:47.936Z,21.78
2018-04-06T00:30:47.954Z,21.84
2018-04-06T00:31:47.921Z,21.81
2018-04-06T00:32:47.918Z,21.78
2018-04-06T00:33:47.908Z,21.75
2018-04-06T00:34:47.907Z,21.78
2018-04-06T00:35:47.897Z,21.77
2018-04-06T00:36:47.886Z,21.78
2018-04-06T00:37:47.888Z,21.75
2018-04-06T00:38:47.876Z,21.75
2018-04-06T00:39:47.873Z,21.77
2018-04-06T00:40:47.868Z,21.78
2018-04-06T00:41:47.856Z,21.72
2018-04-06T00:42:47.854Z,21.77
2018-04-06T00:43:47.847Z,21.77
2018-04-06T00:44:47.848Z,21.77
2018-04-06T00:45:47.836Z,21.81
2018-04-06T00:46:47.825Z,21.77
2018-04-06T00:47:47.820Z,21.75
2018-04-06T00:48:47.814Z,21.78
2018-04-06T00:49:47.807Z,21.77
2018-04-06T00:50:47.803Z,21.75
2018-04-06T00:51:47.799Z,21.75
2018-04-06T00:52:47.788Z,21.78
2018-04-06T00:53:47.777Z,21.74
2018-04-06T00:54:47.775Z,21.77
2018-04-06T00:55:47.770Z,21.74
2018-04-06T00:56:47.760Z,21.70
2018-04-06T00:57:47.756Z,21.75
2018-04-06T00:58:47.752Z,21.68
2018-04-06T00:59:47.746Z,21.80
2018-04-06T01:00:47.742Z,21.77
2018-04-06T01:01:47.735Z,21.74
2018-04-06T01:02:47.724Z,21.74
2018-04-06T01:03:47.715Z,21.80
2018-04-06T01:04:47.712Z,21.83
2018-04-06T01:05:47.705Z,21.75
2018-04-06T01:06:47.698Z,21.74
2018-04-06T01:07:47.694Z,21.75
2018-04-06T01:08:47.691Z,21.78
2018-04-06T01:09:47.681Z,21.75
2018-04-06T01:10:47.673Z,21.74
2018-04-06T01:11:47.665Z,21.75
2018-04-06T01:12:47.663Z,21.72
2018-04-06T01:13:47.653Z,21.78
2018-04-06T01:14:47.652Z,21.75
2018-04-06T01:15:47.645Z,21.77
2018-04-06T01:16:47.640Z,21.70
2018-04-06T01:17:47.629Z,21.72
2018-04-06T01:18:47.622Z,21.69
2018-04-06T01:19:47.614Z,21.74
2018-04-06T01:20:47.605Z,21.77
2018-04-06T01:21:47.604Z,21.78
2018-04-06T01:22:47.603Z,21.78
2018-04-06T01:23:47.595Z,21.72
2018-04-06T01:24:47.582Z,21.77
2018-04-06T01:25:47.600Z,21.75
2018-04-06T01:26:47.576Z,21.75
2018-04-06T01:27:47.562Z,21.77
2018-04-06T01:28:47.555Z,21.74
2018-04-06T01:29:47.551Z,21.74
2018-04-06T01:30:47.551Z,21.80
2018-04-06T01:31:47.547Z,21.77
2018-04-06T01:32:47.532Z,21.77
2018-04-06T01:33:47.524Z,21.77
2018-04-06T01:34:47.527Z,21.77
2018-04-06T01:35:47.515Z,21.68
2018-04-06T01:36:47.506Z,21.77
2018-04-06T01:37:47.502Z,21.66
2018-04-06T01:38:47.508Z,21.78
2018-04-06T01:39:47.487Z,21.72
2018-04-06T01:40:47.480Z,21.78
2018-04-06T01:41:47.474Z,21.70
2018-04-06T01:42:47.468Z,21.78
2018-04-06T01:43:47.462Z,21.72
2018-04-06T01:44:47.459Z,21.70
2018-04-06T01:45:47.485Z,21.74
2018-04-06T01:46:47.468Z,21.70
2018-04-06T01:47:47.436Z,21.74
2018-04-06T01:48:47.431Z,21.70
2018-04-06T01:49:47.421Z,21.70
2018-04-06T01:50:47.422Z,21.74
2018-04-06T01:51:47.411Z,21.69
2018-04-06T01:52:47.408Z,21.66
2018-04-06T01:53:47.408Z,21.74
2018-04-06T01:54:47.393Z,21.68
2018-04-06T01:55:47.389Z,21.69
2018-04-06T01:56:47.379Z,21.69
2018-04-06T01:57:47.374Z,21.70
2018-04-06T01:58:47.371Z,21.81
2018-04-06T01:59:47.357Z,21.80
2018-04-06T02:00:47.356Z,21.70
2018-04-06T02:01:47.348Z,21.68
2018-04-06T02:02:47.338Z,21.66
2018-04-06T02:03:47.331Z,21.69
2018-04-06T02:04:47.323Z,21.66
2018-04-06T02:05:47.335Z,21.69
2018-04-06T02:06:47.323Z,21.69
2018-04-06T02:07:47.312Z,21.68
2018-04-06T02:08:47.303Z,21.65
2018-04-06T02:09:47.297Z,21.66
2018-04-06T02:10:47.288Z,21.62
2018-04-06T02:11:47.283Z,21.68
2018-04-06T02:12:47.275Z,21.68
2018-04-06T02:13:47.272Z,21.66
2018-04-06T02:14:47.263Z,21.65
2018-04-06T02:15:47.262Z,21.70
2018-04-06T02:16:47.253Z,21.69
2018-04-06T02:17:47.249Z,21.68
2018-04-06T02:18:47.239Z,21.69
2018-04-06T02:19:47.237Z,21.75
2018-04-06T02:20:47.227Z,21.70
2018-04-06T02:21:47.215Z,21.66
2018-04-06T02:22:47.214Z,21.66
2018-04-06T02:23:47.205Z,21.62
2018-04-06T02:24:47.215Z,21.63
2018-04-06T02:25:47.193Z,21.63
2018-04-06T02:26:47.185Z,21.63
2018-04-06T02:27:47.183Z,21.66
2018-04-06T02:28:47.175Z,21.66
2018-04-06T02:29:47.168Z,21.65
2018-04-06T02:30:47.166Z,21.68
2018-04-06T02:31:47.155Z,21.63
2018-04-06T02:32:47.151Z,21.65
2018-04-06T02:33:47.136Z,21.68
2018-04-06T02:34:47.136Z,21.68
2018-04-06T02:35:47.131Z,21.65
2018-04-06T02:36:47.162Z,21.66
2018-04-06T02:37:47.116Z,21.74
2018-04-06T02:38:47.114Z,21.65
2018-04-06T02:39:47.107Z,21.62
2018-04-06T02:40:47.096Z,21.63
2018-04-06T02:41:47.097Z,21.60
2018-04-06T02:42:47.097Z,21.59
2018-04-06T02:43:47.080Z,21.74
2018-04-06T02:44:47.074Z,21.62
2018-04-06T02:45:47.071Z,21.65
2018-04-06T02:46:47.062Z,21.65
2018-04-06T02:47:47.055Z,21.62
2018-04-06T02:48:47.040Z,21.63
2018-04-06T02:49:47.040Z,21.63
2018-04-06T02:50:47.039Z,21.62
2018-04-06T02:51:47.024Z,21.63
2018-04-06T02:52:47.018Z,21.63
2018-04-06T02:53:47.012Z,21.58
2018-04-06T02:54:47.013Z,21.63
2018-04-06T02:55:47.001Z,21.63
2018-04-06T02:56:46.997Z,21.63
2018-04-06T02:57:46.996Z,21.59
2018-04-06T02:58:46.985Z,21.66
2018-04-06T02:59:46.975Z,21.62
2018-04-06T03:00:46.973Z,21.62
2018-04-06T03:01:46.965Z,21.58
2018-04-06T03:02:46.953Z,21.53
2018-04-06T03:03:46.950Z,21.54
2018-04-06T03:04:46.948Z,21.54
2018-04-06T03:05:46.936Z,21.59
2018-04-06T03:06:46.932Z,21.47
2018-04-06T03:07:46.924Z,21.58
2018-04-06T03:08:46.922Z,21.53
2018-04-06T03:09:46.928Z,21.54
2018-04-06T03:10:46.909Z,21.59
2018-04-06T03:11:46.900Z,21.58
2018-04-06T03:12:46.890Z,21.53
2018-04-06T03:13:46.888Z,21.48
2018-04-06T03:14:46.880Z,21.54
2018-04-06T03:15:46.869Z,21.48
2018-04-06T03:16:46.868Z,21.53
2018-04-06T03:17:46.860Z,21.47
2018-04-06T03:18:46.853Z,21.58
2018-04-06T03:19:46.850Z,21.51
2018-04-06T03:20:46.839Z,21.51
2018-04-06T03:21:46.835Z,21.51
2018-04-06T03:22:46.828Z,21.51
2018-04-06T03:23:46.818Z,21.47
2018-04-06T03:24:46.822Z,21.51
2018-04-06T03:25:46.812Z,21.48
2018-04-06T03:26:46.807Z,21.48
2018-04-06T03:27:46.795Z,21.47
2018-04-06T03:28:46.791Z,21.56
2018-04-06T03:29:46.781Z,21.51
2018-04-06T03:30:46.777Z,21.48
2018-04-06T03:31:46.774Z,21.50
2018-04-06T03:32:46.770Z,21.51
2018-04-06T03:33:46.758Z,21.56
2018-04-06T03:34:46.751Z,21.54
2018-04-06T03:35:46.744Z,21.51
2018-04-06T03:36:46.740Z,21.53
2018-04-06T03:37:46.732Z,21.66
2018-04-06T03:38:46.726Z,21.66
2018-04-06T03:39:46.725Z,21.62
2018-04-06T03:40:46.716Z,21.66
2018-04-06T03:41:46.715Z,21.69
2018-04-06T03:42:46.703Z,21.68
2018-04-06T03:43:46.689Z,21.68
2018-04-06T03:44:46.686Z,21.75
2018-04-06T03:45:46.680Z,21.68
2018-04-06T03:46:46.674Z,21.70
2018-04-06T03:47:46.674Z,21.65
2018-04-06T03:48:46.660Z,21.77
2018-04-06T03:49:46.653Z,21.77
2018-04-06T03:50:46.649Z,21.75
2018-04-06T03:51:46.647Z,21.77
2018-04-06T03:52:46.634Z,21.63
2018-04-06T03:53:46.627Z,21.58
2018-04-06T03:54:46.632Z,21.59
2018-04-06T03:55:46.615Z,21.50
2018-04-06T03:56:46.609Z,21.54
2018-04-06T03:57:46.600Z,21.53
2018-04-06T03:58:46.589Z,21.47
2018-04-06T03:59:46.584Z,21.59
2018-04-06T04:00:46.583Z,21.51
2018-04-06T04:01:46.567Z,21.53
2018-04-06T04:02:46.564Z,21.53
2018-04-06T04:03:46.552Z,21.51
2018-04-06T04:04:46.548Z,21.54
2018-04-06T04:05:46.538Z,21.51
2018-04-06T04:06:46.529Z,21.54
2018-04-06T04:07:46.521Z,21.63
2018-04-06T04:08:46.515Z,21.62
2018-04-06T04:09:46.507Z,21.63
2018-04-06T04:10:46.505Z,21.69
2018-04-06T04:11:46.494Z,21.65
2018-04-06T04:12:46.485Z,21.75
2018-04-06T04:13:46.475Z,21.77
2018-04-06T04:14:46.502Z,21.83
2018-04-06T04:15:46.485Z,21.75
2018-04-06T04:16:46.471Z,21.78
2018-04-06T04:17:46.443Z,21.80
2018-04-06T04:18:46.438Z,21.77
2018-04-06T04:19:46.432Z,21.83
2018-04-06T04:20:46.420Z,21.85
2018-04-06T04:21:46.415Z,21.83
2018-04-06T04:22:46.406Z,21.88
2018-04-06T04:23:46.397Z,21.92
2018-04-06T04:24:46.390Z,21.92
2018-04-06T04:25:46.381Z,21.96
2018-04-06T04:26:46.374Z,21.91
2018-04-06T04:27:46.366Z,22.00
2018-04-06T04:28:46.357Z,22.01
2018-04-06T04:29:46.351Z,22.03
2018-04-06T04:30:46.340Z,22.07
2018-04-06T04:31:46.337Z,22.04
2018-04-06T04:32:46.325Z,22.06
2018-04-06T04:33:46.318Z,22.04
2018-04-06T04:34:46.310Z,22.10
2018-04-06T04:35:46.303Z,22.04
2018-04-06T04:36:46.295Z,22.10
2018-04-06T04:37:46.285Z,22.10
2018-04-06T04:38:46.277Z,22.19
2018-04-06T04:39:46.282Z,22.15
2018-04-06T04:40:46.269Z,22.15
2018-04-06T04:41:46.256Z,22.18
2018-04-06T04:42:46.247Z,22.16
2018-04-06T04:43:46.239Z,22.12
2018-04-06T04:44:46.229Z,22.19
2018-04-06T04:45:46.226Z,22.15
2018-04-06T04:46:46.233Z,22.18
2018-04-06T04:47:46.211Z,22.15
2018-04-06T04:48:46.201Z,22.21
2018-04-06T04:49:46.192Z,22.18
2018-04-06T04:50:46.183Z,22.19
2018-04-06T04:51:46.175Z,22.22
2018-04-06T04:52:46.174Z,22.18
2018-04-06T04:53:46.159Z,22.23
2018-04-06T04:54:46.158Z,22.21
2018-04-06T04:55:46.146Z,22.16
2018-04-06T04:56:46.138Z,22.12
2018-04-06T04:57:46.129Z,22.14
2018-04-06T04:58:46.124Z,22.16
2018-04-06T04:59:46.114Z,22.08
2018-04-06T05:00:46.105Z,22.07
2018-04-06T05:01:46.095Z,22.06
2018-04-06T05:02:46.089Z,22.03
2018-04-06T05:03:46.084Z,22.08
2018-04-06T05:04:46.077Z,22.04
2018-04-06T05:05:46.070Z,22.10
2018-04-06T05:06:46.060Z,22.10
2018-04-06T05:07:46.055Z,22.07
2018-04-06T05:08:46.043Z,22.06
2018-04-06T05:09:46.034Z,22.07
2018-04-06T05:10:46.027Z,22.07
2018-04-06T05:11:46.019Z,22.06
2018-04-06T05:12:46.011Z,22.07
2018-04-06T05:13:46.001Z,22.00
2018-04-06T05:14:45.997Z,22.01
2018-04-06T05:15:45.986Z,22.04
2018-04-06T05:16:45.989Z,22.04
2018-04-06T05:17:45.974Z,22.06
2018-04-06T05:18:45.964Z,22.04
2018-04-06T05:19:45.955Z,22.00
2018-04-06T05:20:45.949Z,21.99
2018-04-06T05:21:45.939Z,22.00
2018-04-06T05:22:45.936Z,21.99
2018-04-06T05:23:45.932Z,21.96
2018-04-06T05:24:45.915Z,21.96
2018-04-06T05:25:45.910Z,21.99
2018-04-06T05:26:45.901Z,22.03
2018-04-06T05:27:45.889Z,21.94
2018-04-06T05:28:45.890Z,22.03
2018-04-06T05:29:45.877Z,21.96
2018-04-06T05:30:45.867Z,22.00
2018-04-06T05:31:45.861Z,22.00
2018-04-06T05:32:45.853Z,22.01
2018-04-06T05:33:45.845Z,22.00
2018-04-06T05:34:45.845Z,22.00
2018-04-06T05:35:45.830Z,21.99
2018-04-06T05:36:45.819Z,22.00
2018-04-06T05:37:45.812Z,22.00
2018-04-06T05:38:45.834Z,22.00
2018-04-06T05:39:45.799Z,22.01
2018-04-06T05:40:45.793Z,21.99
2018-04-06T05:41:45.805Z,22.06
2018-04-06T05:42:45.770Z,22.04
2018-04-06T05:43:45.765Z,22.03
2018-04-06T05:44:45.757Z,22.01
2018-04-06T05:45:45.748Z,22.00
2018-04-06T05:46:45.742Z,21.99
2018-04-06T05:47:45.733Z,22.01
2018-04-06T05:48:45.728Z,22.06
2018-04-06T05:49:45.717Z,22.06
2018-04-06T05:50:45.714Z,22.06
2018-04-06T05:51:45.701Z,22.07
2018-04-06T05:52:45.697Z,22.07
2018-04-06T05:53:45.684Z,22.03
2018-04-06T05:54:45.681Z,22.07
2018-04-06T05:55:45.668Z,22.04
2018-04-06T05:56:45.659Z,22.08
2018-04-06T05:57:45.651Z,22.12
2018-04-06T05:58:45.651Z,22.01
2018-04-06T05:59:45.635Z,22.07
2018-04-06T06:00:45.628Z,22.06
2018-04-06T06:01:45.620Z,22.15
2018-04-06T06:02:45.612Z,22.10
2018-04-06T06:03:45.604Z,22.03
2018-04-06T06:04:45.596Z,22.06
2018-04-06T06:05:45.592Z,22.00
2018-04-06T06:06:45.579Z,22.15
2018-04-06T06:07:45.570Z,22.10
2018-04-06T06:08:45.561Z,22.01
2018-04-06T06:09:45.599Z,22.08
2018-04-06T06:10:45.549Z,22.04
2018-04-06T06:11:45.538Z,22.03
2018-04-06T06:12:45.536Z,22.07
2018-04-06T06:13:45.534Z,22.07
2018-04-06T06:14:45.518Z,22.12
2018-04-06T06:15:45.505Z,22.12
2018-04-06T06:16:45.502Z,22.10
2018-04-06T06:17:45.533Z,22.04
2018-04-06T06:18:45.485Z,22.18
2018-04-06T06:19:45.483Z,22.18
2018-04-06T06:20:45.470Z,22.14
2018-04-06T06:21:45.465Z,22.15
2018-04-06T06:22:45.454Z,22.21
2018-04-06T06:23:45.442Z,22.21
2018-04-06T06:24:45.438Z,22.21
2018-04-06T06:25:45.439Z,22.22
2018-04-06T06:26:45.420Z,22.18
2018-04-06T06:27:45.414Z,22.30
2018-04-06T06:28:45.404Z,22.26
2018-04-06T06:29:45.398Z,22.28
2018-04-06T06:30:45.386Z,22.26
2018-04-06T06:31:45.386Z,22.23
2018-04-06T06:32:45.381Z,22.31
2018-04-06T06:33:45.366Z,22.22
2018-04-06T06:34:45.357Z,22.26
2018-04-06T06:35:45.350Z,22.31
2018-04-06T06:36:45.343Z,22.36
2018-04-06T06:37:45.335Z,22.36
2018-04-06T06:38:45.327Z,22.34
2018-04-06T06:39:45.319Z,22.40
2018-04-06T06:40:45.311Z,22.37
2018-04-06T06:41:45.302Z,22.40
2018-04-06T06:42:45.297Z,22.44
2018-04-06T06:43:45.290Z,22.40
2018-04-06T06:44:45.279Z,22.51
2018-04-06T06:45:45.270Z,22.53
2018-04-06T06:46:45.264Z,22.55
2018-04-06T06:47:45.259Z,22.56
2018-04-06T06:48:45.247Z,22.59
2018-04-06T06:49:45.242Z,22.56
2018-04-06T06:50:45.240Z,22.47
2018-04-06T06:51:45.223Z,22.52
2018-04-06T06:52:45.216Z,22.58
2018-04-06T06:53:45.209Z,22.62
2018-04-06T06:54:45.206Z,22.58
2018-04-06T06:55:45.193Z,22.65
2018-04-06T06:56:45.189Z,22.68
2018-04-06T06:57:45.176Z,22.62
2018-04-06T06:58:45.173Z,22.70
2018-04-06T06:59:45.160Z,22.70
2018-04-06T07:00:45.154Z,22.70
2018-04-06T07:01:45.149Z,22.74
2018-04-06T07:02:45.144Z,22.76
2018-04-06T07:03:45.132Z,22.78
2018-04-06T07:04:45.126Z,22.77
2018-04-06T07:05:45.118Z,22.80
2018-04-06T07:06:45.108Z,22.84
2018-04-06T07:07:45.100Z,22.86
2018-04-06T07:08:45.097Z,22.86
2018-04-06T07:09:45.090Z,22.93
2018-04-06T07:10:45.106Z,22.98
2018-04-06T07:11:45.073Z,22.95
2018-04-06T07:12:45.066Z,22.99
2018-04-06T07:13:45.056Z,23.04
2018-04-06T07:14:45.048Z,22.98
2018-04-06T07:15:45.040Z,22.98
2018-04-06T07:16:45.032Z,23.04
2018-04-06T07:17:45.060Z,23.07
2018-04-06T07:18:45.056Z,23.07
2018-04-06T07:19:45.038Z,23.13
2018-04-06T07:20:45.024Z,23.18
2018-04-06T07:21:45.010Z,23.18
2018-04-06T07:22:44.989Z,23.08
2018-04-06T07:23:44.988Z,23.14
2018-04-06T07:24:44.973Z,23.21
2018-04-06T07:25:44.968Z,23.21
2018-04-06T07:26:44.959Z,23.32
2018-04-06T07:27:44.952Z,23.25
2018-04-06T07:28:44.943Z,23.32
2018-04-06T07:29:44.935Z,23.34
2018-04-06T07:30:44.928Z,23.29
2018-04-06T07:31:44.923Z,23.25
2018-04-06T07:32:44.914Z,23.34
2018-04-06T07:33:44.906Z,23.37
2018-04-06T07:34:44.902Z,23.44
2018-04-06T07:35:44.895Z,23.37
2018-04-06T07:36:44.884Z,23.48
2018-04-06T07:37:44.880Z,23.47
2018-04-06T07:38:44.867Z,23.52
2018-04-06T07:39:44.862Z,23.49
2018-04-06T07:40:44.856Z,23.51
2018-04-06T07:41:44.855Z,23.56
2018-04-06T07:42:44.844Z,23.62
2018-04-06T07:43:44.835Z,23.58
2018-04-06T07:44:44.826Z,23.63
2018-04-06T07:45:44.825Z,23.66
2018-04-06T07:46:44.814Z,23.71
2018-04-06T07:47:44.803Z,23.69
2018-04-06T07:48:44.797Z,23.67
2018-04-06T07:49:44.793Z,23.67
2018-04-06T07:50:44.796Z,23.74
2018-04-06T07:51:44.777Z,23.84
2018-04-06T07:52:44.768Z,23.73
2018-04-06T07:53:44.774Z,23.73
2018-04-06T07:54:44.760Z,23.76
2018-04-06T07:55:44.748Z,23.79
2018-04-06T07:56:44.740Z,23.76
2018-04-06T07:57:44.732Z,23.86
2018-04-06T07:58:44.726Z,23.88
2018-04-06T07:59:44.721Z,23.89
2018-04-06T08:00:44.712Z,23.92
2018-04-06T08:01:44.706Z,23.92
2018-04-06T08:02:44.697Z,23.95
2018-04-06T08:03:44.691Z,23.92
2018-04-06T08:04:44.686Z,23.99
2018-04-06T08:05:44.679Z,23.95
2018-04-06T08:06:44.670Z,24.11
2018-04-06T08:07:44.662Z,24.01
2018-04-06T08:08:44.658Z,24.09
2018-04-06T08:09:44.650Z,24.10
2018-04-06T08:10:44.641Z,24.11
2018-04-06T08:11:44.636Z,24.09
2018-04-06T08:12:44.628Z,24.11
2018-04-06T08:13:44.622Z,24.21
2018-04-06T08:14:44.616Z,24.16
2018-04-06T08:15:44.611Z,24.19
2018-04-06T08:16:44.637Z,24.21
2018-04-06T08:17:44.597Z,24.24
2018-04-06T08:18:44.590Z,24.25
2018-04-06T08:19:44.598Z,24.24
2018-04-06T08:20:44.574Z,24.26
2018-04-06T08:21:44.565Z,24.32
2018-04-06T08:22:44.562Z,24.34
2018-04-06T08:23:44.554Z,24.26
2018-04-06T08:24:44.548Z,24.34
2018-04-06T08:25:44.541Z,24.37
2018-04-06T08:26:44.532Z,24.34
2018-04-06T08:27:44.542Z,24.40
2018-04-06T08:28:44.520Z,24.43
2018-04-06T08:29:44.514Z,24.43
2018-04-06T08:30:44.513Z,24.43
2018-04-06T08:31:44.506Z,24.43
2018-04-06T08:32:44.494Z,24.41
2018-04-06T08:33:44.489Z,24.50
2018-04-06T08:34:44.482Z,24.44
2018-04-06T08:35:44.473Z,24.55
2018-04-06T08:36:44.469Z,24.61
2018-04-06T08:37:44.467Z,24.48
2018-04-06T08:38:44.456Z,24.61
2018-04-06T08:39:44.448Z,24.65
2018-04-06T08:40:44.450Z,24.66
2018-04-06T08:41:44.434Z,24.68
2018-04-06T08:42:44.429Z,24.65
2018-04-06T08:43:44.426Z,24.66
2018-04-06T08:44:44.421Z,24.66
2018-04-06T08:45:44.410Z,24.69
2018-04-06T08:46:44.408Z,24.68
2018-04-06T08:47:44.396Z,24.75
2018-04-06T08:48:44.384Z,24.79
2018-04-06T08:49:44.382Z,24.75
2018-04-06T08:50:44.376Z,24.85
2018-04-06T08:51:44.369Z,24.77
2018-04-06T08:52:44.373Z,24.84
2018-04-06T08:53:44.358Z,24.82
2018-04-06T08:54:44.411Z,24.92
2018-04-06T08:55:44.344Z,24.88
2018-04-06T08:56:44.342Z,24.86
2018-04-06T08:57:44.331Z,24.96
2018-04-06T08:58:44.329Z,25.01
2018-04-06T08:59:44.320Z,24.99
2018-04-06T09:00:44.314Z,25.00
2018-04-06T09:01:44.309Z,24.97
2018-04-06T09:02:44.300Z,24.99
2018-04-06T09:03:44.296Z,25.01
2018-04-06T09:04:44.297Z,25.00
2018-04-06T09:05:44.287Z,25.01
2018-04-06T09:06:44.286Z,25.09
2018-04-06T09:07:44.274Z,24.96
2018-04-06T09:08:44.286Z,25.00
2018-04-06T09:09:44.260Z,25.09
2018-04-06T09:10:44.256Z,25.09
2018-04-06T09:11:44.244Z,25.07
2018-04-06T09:12:44.322Z,25.15
2018-04-06T09:13:44.242Z,25.11
2018-04-06T09:14:44.241Z,25.18
2018-04-06T09:15:44.228Z,25.14
2018-04-06T09:16:44.214Z,25.12
2018-04-06T09:17:44.210Z,25.12
2018-04-06T09:18:44.205Z,25.21
2018-04-06T09:19:44.199Z,25.22
2018-04-06T09:20:44.190Z,25.18
2018-04-06T09:21:44.188Z,25.19
2018-04-06T09:22:44.180Z,25.18
2018-04-06T09:23:44.173Z,25.31
2018-04-06T09:24:44.166Z,25.22
2018-04-06T09:25:44.167Z,25.22
2018-04-06T09:26:44.156Z,25.22
2018-04-06T09:27:44.147Z,25.25
2018-04-06T09:28:44.144Z,25.30
2018-04-06T09:29:44.145Z,25.25
2018-04-06T09:30:44.142Z,25.30
2018-04-06T09:31:44.148Z,25.26
2018-04-06T09:32:44.121Z,25.24
2018-04-06T09:33:44.119Z,25.39
2018-04-06T09:34:44.107Z,25.31
2018-04-06T09:35:44.103Z,25.29
2018-04-06T09:36:44.095Z,25.30
2018-04-06T09:37:44.093Z,25.37
2018-04-06T09:38:44.085Z,25.41
2018-04-06T09:39:44.106Z,25.43
2018-04-06T09:40:44.074Z,25.41
2018-04-06T09:41:44.069Z,25.36
2018-04-06T09:42:44.062Z,25.33
2018-04-06T09:43:44.055Z,25.51
2018-04-06T09:44:44.046Z,25.43
2018-04-06T09:45:44.050Z,25.44
2018-04-06T09:46:44.051Z,25.49
2018-04-06T09:47:44.032Z,25.48
2018-04-06T09:48:44.026Z,25.52
2018-04-06T09:49:44.077Z,25.43
2018-04-06T09:50:44.033Z,25.54
2018-04-06T09:51:44.010Z,25.54
2018-04-06T09:52:44.003Z,25.56
2018-04-06T09:53:43.998Z,25.51
2018-04-06T09:54:43.993Z,25.58
2018-04-06T09:55:43.989Z,25.55
2018-04-06T09:56:43.982Z,25.49
2018-04-06T09:57:43.980Z,25.56
2018-04-06T09:58:43.970Z,25.59
2018-04-06T09:59:43.962Z,25.59
2018-04-06T10:00:43.956Z,25.59
2018-04-06T10:01:43.956Z,25.66
2018-04-06T10:02:43.952Z,25.55
2018-04-06T10:03:43.940Z,25.62
2018-04-06T10:04:43.935Z,25.63
2018-04-06T10:05:43.931Z,25.67
2018-04-06T10:06:43.926Z,25.67
2018-04-06T10:07:43.917Z,25.61
2018-04-06T10:08:43.912Z,25.67
2018-04-06T10:09:43.910Z,25.62
2018-04-06T10:10:43.901Z,25.61
2018-04-06T10:11:43.902Z,25.66
2018-04-06T10:12:43.892Z,25.63
2018-04-06T10:13:43.886Z,25.67
2018-04-06T10:14:43.881Z,25.67
2018-04-06T10:15:43.873Z,25.76
2018-04-06T10:16:43.866Z,25.73
2018-04-06T10:17:43.860Z,25.74
2018-04-06T10:18:43.858Z,25.83
2018-04-06T10:19:43.994Z,25.81
2018-04-06T10:20:43.853Z,25.71
2018-04-06T10:21:43.840Z,25.77
2018-04-06T10:22:43.835Z,25.76
2018-04-06T10:23:43.832Z,25.86
2018-04-06T10:24:43.828Z,25.89
2018-04-06T10:25:43.817Z,25.83
2018-04-06T10:26:43.818Z,25.83
2018-04-06T10:27:43.802Z,25.91
2018-04-06T10:28:43.806Z,25.83
2018-04-06T10:29:43.797Z,25.88
2018-04-06T10:30:43.799Z,25.85
2018-04-06T10:31:43.778Z,25.95
2018-04-06T10:32:43.789Z,25.86
2018-04-06T10:33:43.772Z,25.86
2018-04-06T10:34:43.767Z,25.86
2018-04-06T10:35:43.763Z,25.88
2018-04-06T10:36:43.770Z,25.96
2018-04-06T10:37:43.756Z,25.91
2018-04-06T10:38:43.747Z,25.99
2018-04-06T10:39:43.740Z,25.98
2018-04-06T10:40:43.742Z,25.95
2018-04-06T10:41:43.729Z,25.99
2018-04-06T10:42:43.725Z,25.95
2018-04-06T10:43:43.717Z,25.96
2018-04-06T10:44:43.712Z,25.99
2018-04-06T10:45:43.709Z,25.99
2018-04-06T10:46:43.711Z,26.01
2018-04-06T10:47:43.700Z,26.01
2018-04-06T10:48:43.694Z,26.04
2018-04-06T10:49:43.689Z,25.98
2018-04-06T10:50:43.682Z,26.04
2018-04-06T10:51:43.671Z,25.96
2018-04-06T10:52:43.669Z,26.06
2018-04-06T10:53:43.664Z,26.07
2018-04-06T10:54:43.665Z,26.03
2018-04-06T10:55:43.655Z,26.04
2018-04-06T10:56:43.648Z,26.01
2018-04-06T10:57:43.647Z,26.06
2018-04-06T10:58:43.637Z,26.01
2018-04-06T10:59:43.631Z,26.07
2018-04-06T11:00:43.626Z,26.03
2018-04-06T11:01:43.621Z,26.01
2018-04-06T11:02:43.616Z,26.08
2018-04-06T11:03:43.614Z,26.11
2018-04-06T11:04:43.610Z,26.13
2018-04-06T11:05:43.611Z,26.11
2018-04-06T11:06:43.609Z,26.11
2018-04-06T11:07:43.589Z,26.07
2018-04-06T11:08:43.582Z,26.01
2018-04-06T11:09:43.580Z,26.13
2018-04-06T11:10:43.570Z,26.10
2018-04-06T11:11:43.568Z,26.03
2018-04-06T11:12:43.566Z,26.11
2018-04-06T11:13:43.648Z,26.07
2018-04-06T11:14:43.553Z,26.06
2018-04-06T11:15:43.546Z,26.08
2018-04-06T11:16:43.539Z,26.04
2018-04-06T11:17:43.535Z,26.10
2018-04-06T11:18:43.530Z,26.13
2018-04-06T11:19:43.524Z,26.10
2018-04-06T11:20:43.522Z,26.01
2018-04-06T11:21:43.566Z,26.07
2018-04-06T11:22:43.509Z,26.08
2018-04-06T11:23:43.502Z,26.06
2018-04-06T11:24:43.499Z,25.98
2018-04-06T11:25:43.492Z,26.06
2018-04-06T11:26:43.483Z,26.06
2018-04-06T11:27:43.480Z,25.98
2018-04-06T11:28:43.475Z,25.96
2018-04-06T11:29:43.475Z,25.95
2018-04-06T11:30:43.464Z,25.92
2018-04-06T11:31:43.458Z,25.99
2018-04-06T11:32:43.454Z,25.98
2018-04-06T11:33:43.446Z,25.95
2018-04-06T11:34:43.440Z,25.98
2018-04-06T11:35:43.437Z,25.95
2018-04-06T11:36:43.433Z,25.91
2018-04-06T11:37:43.425Z,25.95
2018-04-06T11:38:43.429Z,25.92
2018-04-06T11:39:43.412Z,25.86
2018-04-06T11:40:43.414Z,25.86
2018-04-06T11:41:43.406Z,25.80
2018-04-06T11:42:43.399Z,25.86
2018-04-06T11:43:43.390Z,25.91
2018-04-06T11:44:43.385Z,25.89
2018-04-06T11:45:43.379Z,25.85
2018-04-06T11:46:43.379Z,25.78
2018-04-06T11:47:43.374Z,25.85
2018-04-06T11:48:43.363Z,25.85
2018-04-06T11:49:43.359Z,25.80
2018-04-06T11:50:43.356Z,25.71
2018-04-06T11:51:43.347Z,25.81
2018-04-06T11:52:43.341Z,25.83
2018-04-06T11:53:43.335Z,25.78
2018-04-06T11:54:43.333Z,25.76
2018-04-06T11:55:43.328Z,25.71
2018-04-06T11:56:43.323Z,25.71
2018-04-06T11:57:43.326Z,25.71
2018-04-06T11:58:43.311Z,25.74
2018-04-06T11:59:43.337Z,25.76
2018-04-06T12:00:43.298Z,25.63
2018-04-06T12:01:43.317Z,25.66
2018-04-06T12:02:43.291Z,25.73
2018-04-06T12:03:43.286Z,25.68
2018-04-06T12:04:43.312Z,25.62
2018-04-06T12:05:43.285Z,25.62
2018-04-06T12:06:43.268Z,25.67
2018-04-06T12:07:43.260Z,25.56
2018-04-06T12:08:43.255Z,25.59
2018-04-06T12:09:43.249Z,25.62
2018-04-06T12:10:43.243Z,25.56
2018-04-06T12:11:43.261Z,25.61
2018-04-06T12:12:43.236Z,25.58
2018-04-06T12:13:43.227Z,25.56
2018-04-06T12:14:43.227Z,25.55
2018-04-06T12:15:43.215Z,25.46
2018-04-06T12:16:43.210Z,25.51
2018-04-06T12:17:43.201Z,25.46
2018-04-06T12:18:43.195Z,25.54
2018-04-06T12:19:43.189Z,25.48
2018-04-06T12:20:43.185Z,25.43
2018-04-06T12:21:43.185Z,25.43
2018-04-06T12:22:43.225Z,25.33
2018-04-06T12:23:43.216Z,25.39
2018-04-06T12:24:43.161Z,25.34
2018-04-06T12:25:43.154Z,25.33
2018-04-06T12:26:43.153Z,25.37
2018-04-06T12:27:43.142Z,25.33
2018-04-06T12:28:43.143Z,25.36
2018-04-06T12:29:43.138Z,25.33
2018-04-06T12:30:43.132Z,25.26
2018-04-06T12:31:43.121Z,25.24
2018-04-06T12:32:43.124Z,25.26
2018-04-06T12:33:43.107Z,25.22
2018-04-06T12:34:43.106Z,25.24
2018-04-06T12:35:43.093Z,25.19
2018-04-06T12:36:43.094Z,25.29
2018-04-06T12:37:43.089Z,25.19
2018-04-06T12:38:43.083Z,25.21
2018-04-06T12:39:43.072Z,25.16
2018-04-06T12:40:43.069Z,25.16
2018-04-06T12:41:43.062Z,25.18
2018-04-06T12:42:43.050Z,25.09
2018-04-06T12:43:43.047Z,25.12
2018-04-06T12:44:43.042Z,25.00
2018-04-06T12:45:43.046Z,25.14
2018-04-06T12:46:43.035Z,25.04
2018-04-06T12:47:43.025Z,25.07
2018-04-06T12:48:43.020Z,25.06
2018-04-06T12:49:43.013Z,25.01
2018-04-06T12:50:43.007Z,24.97
2018-04-06T12:51:43.000Z,24.96
2018-04-06T12:52:42.995Z,25.01